Time;durP1;ratioP1;P1;durP2;ratioP2;P2;SDS_P1;SDS_P2;PMS_P1;PMS_P2;Temp;Humidity;BMP_temperature;BMP_pressure;BME280_temperature;BME280_humidity;BME280_pressure;Samples;Min_cycle;Max_cycle;Signal;HPM_P1;HPM_P2
2022/05/26 00:02:20;;;;;;;;;;;27.80;37.20;;;;;;5118893;28;933;-44
2022/05/26 00:04:47;;;;;;;;;;;27.80;37.30;;;;;;5118513;28;968;-44
2022/05/26 00:07:15;;;;;;;;;;;27.80;37.30;;;;;;5118968;28;1901;-44
2022/05/26 00:09:42;;;;;;;;;;;27.70;37.30;;;;;;5118809;28;920;-44
2022/05/26 00:12:10;;;;;;;;;;;27.70;37.40;;;;;;5119347;28;1035;-44
2022/05/26 00:14:37;;;;;;;;;;;27.70;37.50;;;;;;5118123;28;1036;-43
2022/05/26 00:17:04;;;;;;;;;;;27.70;37.50;;;;;;5118855;28;932;-43
2022/05/26 00:19:30;;;;;;;;;;;27.70;37.60;;;;;;5118581;28;951;-44
2022/05/26 00:21:57;;;;;;;;;;;27.70;37.60;;;;;;5118579;28;1001;-44
2022/05/26 00:24:26;;;;;;;;;;;27.70;37.70;;;;;;5119177;28;981;-44
2022/05/26 00:26:52;;;;;;;;;;;27.70;37.70;;;;;;5118753;28;1987;-44
2022/05/26 00:29:19;;;;;;;;;;;27.70;37.70;;;;;;5117210;28;1016;-44
2022/05/26 00:31:45;;;;;;;;;;;27.70;37.60;;;;;;5118742;28;989;-44
2022/05/26 00:34:12;;;;;;;;;;;27.70;37.50;;;;;;5118783;28;976;-44
2022/05/26 00:36:40;;;;;;;;;;;27.70;37.60;;;;;;5118512;28;1833;-44
2022/05/26 00:39:08;;;;;;;;;;;27.70;37.60;;;;;;5119062;28;989;-43
2022/05/26 00:41:38;;;;;;;;;;;27.70;37.60;;;;;;5119220;28;984;-44
2022/05/26 00:44:05;;;;;;;;;;;27.70;37.60;;;;;;5118109;28;949;-44
2022/05/26 00:46:35;;;;;;;;;;;27.80;37.60;;;;;;5118238;28;985;-44
2022/05/26 00:49:02;;;;;;;;;;;27.70;37.60;;;;;;5118838;28;1901;-44
2022/05/26 00:51:31;;;;;;;;;;;27.70;37.50;;;;;;5118772;28;944;-44
2022/05/26 00:54:00;;;;;;;;;;;27.70;37.60;;;;;;5118037;28;948;-44
2022/05/26 00:56:32;;;;;;;;;;;27.70;37.50;;;;;;5117943;28;933;-44
2022/05/26 00:59:01;;;;;;;;;;;27.80;37.60;;;;;;5117840;28;1344;-44
2022/05/26 01:01:29;;;;;;;;;;;27.70;37.60;;;;;;5118512;28;976;-44
2022/05/26 01:03:57;;;;;;;;;;;27.70;37.60;;;;;;5118172;28;941;-44
2022/05/26 01:06:26;;;;;;;;;;;27.70;37.50;;;;;;5118180;28;1023;-45
2022/05/26 01:08:54;;;;;;;;;;;27.80;37.50;;;;;;5118451;28;1957;-43
2022/05/26 01:11:21;;;;;;;;;;;27.80;37.50;;;;;;5118478;28;1096;-44
2022/05/26 01:13:49;;;;;;;;;;;27.70;37.50;;;;;;5118552;28;1029;-44
2022/05/26 01:16:24;;;;;;;;;;;27.70;37.50;;;;;;5118792;28;1105;-44
2022/05/26 01:18:55;;;;;;;;;;;27.70;37.60;;;;;;5118053;28;945;-44
2022/05/26 01:21:26;;;;;;;;;;;27.70;37.60;;;;;;5118485;28;1093;-44
2022/05/26 01:24:12;;;;;;;;;;;27.70;37.70;;;;;;5118092;28;874;-44
2022/05/26 01:26:53;;;;;;;;;;;27.70;37.70;;;;;;5118046;28;981;-44
2022/05/26 01:29:37;;;;;;;;;;;27.70;37.70;;;;;;5118517;28;1917;-45
2022/05/26 01:32:10;;;;;;;;;;;27.70;37.70;;;;;;5104580;28;1290;-44
2022/05/26 01:34:42;;;;;;;;;;;27.70;37.80;;;;;;5117452;28;1138;-44
2022/05/26 01:37:12;;;;;;;;;;;27.70;37.80;;;;;;5118165;28;1037;-44
2022/05/26 01:39:43;;;;;;;;;;;27.60;37.80;;;;;;5118472;28;1031;-44
2022/05/26 01:42:15;;;;;;;;;;;27.70;37.80;;;;;;5117730;28;933;-43
2022/05/26 01:44:48;;;;;;;;;;;27.60;37.80;;;;;;5116304;28;1175;-44
2022/05/26 01:47:19;;;;;;;;;;;27.60;37.80;;;;;;5117386;28;1901;-44
2022/05/26 01:49:49;;;;;;;;;;;27.60;37.90;;;;;;5117312;28;990;-43
2022/05/26 01:52:17;;;;;;;;;;;27.60;37.90;;;;;;5118267;28;916;-43
2022/05/26 01:54:47;;;;;;;;;;;27.60;37.90;;;;;;5117486;28;996;-44
2022/05/26 01:57:16;;;;;;;;;;;27.60;37.80;;;;;;5120043;28;960;-44
2022/05/26 01:59:46;;;;;;;;;;;27.70;37.90;;;;;;5121814;28;1276;-43
2022/05/26 02:02:14;;;;;;;;;;;27.60;37.90;;;;;;5121972;28;892;-44
2022/05/26 02:04:45;;;;;;;;;;;27.60;38.00;;;;;;5121163;28;1164;-44
2022/05/26 02:07:16;;;;;;;;;;;27.60;38.00;;;;;;5121506;28;980;-44
2022/05/26 02:09:43;;;;;;;;;;;27.60;38.00;;;;;;5122299;28;1976;-44
2022/05/26 02:12:11;;;;;;;;;;;27.60;38.00;;;;;;5121820;28;999;-44
2022/05/26 02:14:40;;;;;;;;;;;27.60;38.00;;;;;;5121237;28;1097;-43
2022/05/26 02:17:10;;;;;;;;;;;27.60;38.00;;;;;;5121737;28;956;-44
2022/05/26 02:19:38;;;;;;;;;;;27.50;38.00;;;;;;5121400;28;1005;-44
2022/05/26 02:22:13;;;;;;;;;;;27.60;38.10;;;;;;5120835;28;861;-44
2022/05/26 02:24:42;;;;;;;;;;;27.60;37.90;;;;;;5121549;28;945;-44
2022/05/26 02:27:09;;;;;;;;;;;27.60;37.90;;;;;;5121141;28;1051;-44
2022/05/26 02:29:56;;;;;;;;;;;27.70;38.00;;;;;;5120754;28;1905;-44
2022/05/26 02:32:24;;;;;;;;;;;27.70;37.90;;;;;;5122544;28;967;-43
2022/05/26 02:34:53;;;;;;;;;;;27.60;37.80;;;;;;5120850;28;929;-44
2022/05/26 02:37:21;;;;;;;;;;;27.70;37.90;;;;;;5121403;28;1007;-44
2022/05/26 02:39:48;;;;;;;;;;;27.60;38.00;;;;;;5121446;28;974;-44
2022/05/26 02:42:15;;;;;;;;;;;27.60;37.90;;;;;;5121334;28;996;-44
2022/05/26 02:44:43;;;;;;;;;;;27.60;38.00;;;;;;5121733;28;984;-43
2022/05/26 02:47:26;;;;;;;;;;;27.50;38.00;;;;;;5121387;28;987;-44
2022/05/26 02:50:02;;;;;;;;;;;27.50;38.10;;;;;;5121098;28;1910;-43
2022/05/26 02:52:34;;;;;;;;;;;27.50;38.10;;;;;;5121073;28;1006;-44
2022/05/26 02:55:06;;;;;;;;;;;27.50;38.10;;;;;;5120801;28;974;-44
2022/05/26 02:57:36;;;;;;;;;;;27.50;38.10;;;;;;5121011;28;964;-44
2022/05/26 03:00:05;;;;;;;;;;;27.50;38.20;;;;;;5120830;28;1015;-44
2022/05/26 03:02:36;;;;;;;;;;;27.50;38.20;;;;;;5121016;28;1043;-44
2022/05/26 03:05:04;;;;;;;;;;;27.50;38.20;;;;;;5120956;28;1007;-44
2022/05/26 03:07:34;;;;;;;;;;;27.50;38.20;;;;;;5120614;28;933;-43
2022/05/26 03:10:01;;;;;;;;;;;27.40;38.20;;;;;;5120886;28;1914;-44
2022/05/26 03:12:29;;;;;;;;;;;27.50;38.30;;;;;;5120232;28;1008;-44
2022/05/26 03:14:56;;;;;;;;;;;27.40;38.30;;;;;;5120970;28;952;-44
2022/05/26 03:17:23;;;;;;;;;;;27.50;38.40;;;;;;5120629;28;985;-44
2022/05/26 03:19:49;;;;;;;;;;;27.50;38.30;;;;;;5120701;28;1017;-45
2022/05/26 03:22:16;;;;;;;;;;;27.40;38.40;;;;;;5121185;28;996;-45
2022/05/26 03:24:44;;;;;;;;;;;27.40;38.40;;;;;;5121351;28;1094;-45
2022/05/26 03:27:11;;;;;;;;;;;27.40;38.40;;;;;;5120241;28;992;-45
2022/05/26 03:29:38;;;;;;;;;;;27.40;38.30;;;;;;5120854;28;1910;-45
2022/05/26 03:32:06;;;;;;;;;;;27.40;38.30;;;;;;5120895;28;1000;-45
2022/05/26 03:42:48;;;;;;;;;;;27.40;38.50;;;;;;5119535;28;579;-45
2022/05/26 03:45:19;;;;;;;;;;;27.40;38.50;;;;;;5120242;28;954;-45
2022/05/26 03:47:45;;;;;;;;;;;27.40;38.50;;;;;;5119921;28;860;-46
2022/05/26 03:50:12;;;;;;;;;;;27.40;38.50;;;;;;5120620;28;1902;-45
2022/05/26 03:52:39;;;;;;;;;;;27.40;38.50;;;;;;5119473;28;949;-45
2022/05/26 03:55:07;;;;;;;;;;;27.40;38.50;;;;;;5119379;28;973;-45
2022/05/26 03:57:34;;;;;;;;;;;27.40;38.50;;;;;;5118265;28;1000;-45
2022/05/26 04:00:01;;;;;;;;;;;27.40;38.50;;;;;;5118076;28;1232;-43
2022/05/26 04:02:28;;;;;;;;;;;27.30;38.60;;;;;;5118979;28;988;-45
2022/05/26 04:04:56;;;;;;;;;;;27.40;38.70;;;;;;5119466;28;1023;-45
2022/05/26 04:07:22;;;;;;;;;;;27.30;38.60;;;;;;5119657;28;1470;-45
2022/05/26 04:09:49;;;;;;;;;;;27.30;38.60;;;;;;5119154;28;1909;-45
2022/05/26 04:12:18;;;;;;;;;;;27.30;38.70;;;;;;5117798;28;1004;-45
2022/05/26 04:14:44;;;;;;;;;;;27.30;38.70;;;;;;5118669;28;938;-45
2022/05/26 04:17:11;;;;;;;;;;;27.30;38.70;;;;;;5118087;28;917;-44
2022/05/26 04:19:41;;;;;;;;;;;27.30;38.60;;;;;;5116402;28;1005;-45
2022/05/26 04:22:17;;;;;;;;;;;27.30;38.60;;;;;;5117498;28;1047;-45
2022/05/26 04:24:44;;;;;;;;;;;27.40;38.70;;;;;;5117260;28;940;-45
2022/05/26 04:27:11;;;;;;;;;;;27.30;38.70;;;;;;5117554;28;944;-45
2022/05/26 04:29:39;;;;;;;;;;;27.20;38.80;;;;;;5117274;28;1902;-46
2022/05/26 04:32:07;;;;;;;;;;;27.30;38.80;;;;;;5117181;28;1000;-45
2022/05/26 04:34:34;;;;;;;;;;;27.30;38.80;;;;;;5117357;28;1190;-45
2022/05/26 04:37:01;;;;;;;;;;;27.30;38.80;;;;;;5118036;28;1008;-45
2022/05/26 04:39:28;;;;;;;;;;;27.30;38.80;;;;;;5116938;28;970;-45
2022/05/26 04:41:58;;;;;;;;;;;27.30;38.70;;;;;;5116786;28;896;-46
2022/05/26 04:44:26;;;;;;;;;;;27.30;38.70;;;;;;5118110;28;895;-47
2022/05/26 04:46:54;;;;;;;;;;;27.30;38.70;;;;;;5116490;28;945;-46
2022/05/26 04:49:20;;;;;;;;;;;27.30;38.60;;;;;;5117361;28;1980;-46
2022/05/26 04:51:47;;;;;;;;;;;27.30;38.80;;;;;;5117388;28;981;-45
2022/05/26 04:54:13;;;;;;;;;;;27.20;38.50;;;;;;5117038;28;1208;-47
2022/05/26 04:56:40;;;;;;;;;;;27.30;38.80;;;;;;5117013;28;945;-47
2022/05/26 04:59:07;;;;;;;;;;;27.30;38.80;;;;;;5117847;28;1039;-45
2022/05/26 05:01:33;;;;;;;;;;;27.20;38.80;;;;;;5116382;28;1076;-46
2022/05/26 05:04:02;;;;;;;;;;;27.30;38.80;;;;;;5116538;28;1016;-46
2022/05/26 05:06:28;;;;;;;;;;;27.20;38.80;;;;;;5116740;28;996;-45
2022/05/26 05:08:55;;;;;;;;;;;27.20;38.80;;;;;;5116517;28;1980;-47
2022/05/26 05:11:22;;;;;;;;;;;27.20;39.00;;;;;;5117285;28;1113;-46
2022/05/26 05:13:48;;;;;;;;;;;27.20;38.90;;;;;;5116874;28;854;-46
2022/05/26 05:16:20;;;;;;;;;;;27.20;38.90;;;;;;5117768;28;1076;-46
2022/05/26 05:18:47;;;;;;;;;;;27.20;38.90;;;;;;5117731;28;1000;-47
2022/05/26 05:21:16;;;;;;;;;;;27.30;39.00;;;;;;5117512;28;1001;-46
2022/05/26 05:23:44;;;;;;;;;;;27.20;38.90;;;;;;5116223;28;1008;-46
2022/05/26 05:26:12;;;;;;;;;;;27.20;39.00;;;;;;5118527;28;1001;-47
2022/05/26 05:28:41;;;;;;;;;;;27.30;39.00;;;;;;5117948;28;1909;-46
2022/05/26 05:31:09;;;;;;;;;;;27.30;39.00;;;;;;5117743;28;971;-47
2022/05/26 05:33:37;;;;;;;;;;;27.30;39.00;;;;;;5117903;28;1007;-47
2022/05/26 05:36:06;;;;;;;;;;;27.20;39.00;;;;;;5116950;28;1031;-46
2022/05/26 05:38:38;;;;;;;;;;;27.20;39.10;;;;;;5115972;28;960;-46
2022/05/26 05:41:04;;;;;;;;;;;27.20;39.00;;;;;;5116210;28;1047;-46
2022/05/26 05:43:32;;;;;;;;;;;27.20;39.00;;;;;;5115690;28;937;-46
2022/05/26 05:45:58;;;;;;;;;;;27.20;39.10;;;;;;5115998;28;1473;-46
2022/05/26 05:48:25;;;;;;;;;;;27.20;39.10;;;;;;5116233;28;933;-47
2022/05/26 05:50:52;;;;;;;;;;;27.20;39.20;;;;;;5115822;28;1047;-46
2022/05/26 05:53:19;;;;;;;;;;;27.20;39.20;;;;;;5116543;28;945;-46
2022/05/26 05:55:47;;;;;;;;;;;27.20;39.20;;;;;;5116124;28;921;-46
2022/05/26 05:58:14;;;;;;;;;;;27.20;39.30;;;;;;5115579;28;1032;-46
2022/05/26 06:00:41;;;;;;;;;;;27.20;39.30;;;;;;5116330;28;1047;-47
2022/05/26 06:03:08;;;;;;;;;;;27.20;39.30;;;;;;5115597;28;921;-47
2022/05/26 06:05:37;;;;;;;;;;;27.10;39.30;;;;;;5115976;28;965;-47
2022/05/26 06:08:04;;;;;;;;;;;27.20;39.40;;;;;;5115194;28;941;-46
2022/05/26 06:10:31;;;;;;;;;;;27.20;39.40;;;;;;5116819;28;1967;-46
2022/05/26 06:13:00;;;;;;;;;;;27.10;39.40;;;;;;5115988;28;1007;-46
2022/05/26 06:15:26;;;;;;;;;;;27.10;39.40;;;;;;5116061;28;988;-45
2022/05/26 06:17:53;;;;;;;;;;;27.10;39.40;;;;;;5115479;28;925;-45
2022/05/26 06:20:20;;;;;;;;;;;27.10;39.40;;;;;;5115992;28;988;-46
2022/05/26 06:22:47;;;;;;;;;;;27.10;39.40;;;;;;5116389;28;983;-46
2022/05/26 06:25:15;;;;;;;;;;;27.10;39.50;;;;;;5114411;28;1003;-47
2022/05/26 06:30:30;;;;;;;;;;;27.20;39.50;;;;;;5115115;28;1905;-47
2022/05/26 06:38:29;;;;;;;;;;;27.20;39.40;;;;;;5115527;28;629;-47
2022/05/26 06:40:56;;;;;;;;;;;27.20;39.40;;;;;;5116682;28;966;-46
2022/05/26 06:43:23;;;;;;;;;;;27.20;39.50;;;;;;5117832;28;991;-45
2022/05/26 06:45:51;;;;;;;;;;;27.20;39.50;;;;;;5118126;28;1015;-46
2022/05/26 06:48:18;;;;;;;;;;;27.20;39.60;;;;;;5118415;28;933;-46
2022/05/26 06:50:45;;;;;;;;;;;27.20;39.60;;;;;;5118504;28;1910;-46
2022/05/26 06:53:12;;;;;;;;;;;27.20;39.50;;;;;;5118962;28;956;-46
2022/05/26 06:55:38;;;;;;;;;;;27.20;39.50;;;;;;5118658;28;1016;-46
2022/05/26 06:58:05;;;;;;;;;;;27.20;39.50;;;;;;5118298;28;1005;-46
2022/05/26 07:00:32;;;;;;;;;;;27.20;39.50;;;;;;5118664;28;1117;-46
2022/05/26 07:03:00;;;;;;;;;;;27.20;39.40;;;;;;5119552;28;937;-47
2022/05/26 07:05:27;;;;;;;;;;;27.20;39.40;;;;;;5119623;28;1018;-47
2022/05/26 07:07:54;;;;;;;;;;;27.20;39.60;;;;;;5118908;28;932;-47
2022/05/26 07:10:21;;;;;;;;;;;27.20;39.70;;;;;;5118899;28;1913;-46
2022/05/26 07:12:47;;;;;;;;;;;27.20;39.60;;;;;;5119182;28;968;-47
2022/05/26 07:15:14;;;;;;;;;;;27.20;39.50;;;;;;5119032;28;1016;-47
2022/05/26 07:17:41;;;;;;;;;;;27.20;39.70;;;;;;5118334;28;934;-46
2022/05/26 07:20:10;;;;;;;;;;;27.20;39.60;;;;;;5118264;28;1007;-46
2022/05/26 07:22:37;;;;;;;;;;;27.30;39.60;;;;;;5118968;28;933;-46
2022/05/26 07:25:04;;;;;;;;;;;27.30;39.50;;;;;;5118748;28;1012;-47
2022/05/26 07:27:32;;;;;;;;;;;27.30;39.50;;;;;;5119090;28;958;-46
2022/05/26 07:29:59;;;;;;;;;;;27.30;39.50;;;;;;5119665;28;1905;-47
2022/05/26 07:32:25;;;;;;;;;;;27.30;39.40;;;;;;5120086;28;933;-47
2022/05/26 07:34:52;;;;;;;;;;;27.30;39.40;;;;;;5118838;28;1012;-47
2022/05/26 07:42:48;;;;;;;;;;;27.40;39.40;;;;;;5118263;28;605;-46
2022/05/26 07:45:15;;;;;;;;;;;27.40;39.40;;;;;;5117977;28;988;-47
2022/05/26 07:47:42;;;;;;;;;;;27.40;39.40;;;;;;5116706;28;960;-47
2022/05/26 07:50:11;;;;;;;;;;;27.40;39.30;;;;;;5116825;28;1985;-46
2022/05/26 07:52:39;;;;;;;;;;;27.40;39.40;;;;;;5117856;28;909;-46
2022/05/26 07:55:07;;;;;;;;;;;27.30;39.30;;;;;;5116839;28;1027;-47
2022/05/26 07:57:34;;;;;;;;;;;27.30;39.50;;;;;;5116616;28;954;-48
2022/05/26 08:00:01;;;;;;;;;;;27.30;39.50;;;;;;5117417;28;1023;-47
2022/05/26 08:02:28;;;;;;;;;;;27.40;39.50;;;;;;5116588;28;1007;-47
2022/05/26 08:04:55;;;;;;;;;;;27.30;39.50;;;;;;5117160;28;1010;-46
2022/05/26 08:07:22;;;;;;;;;;;27.30;39.40;;;;;;5116453;28;941;-47
2022/05/26 08:09:50;;;;;;;;;;;27.40;39.60;;;;;;5116802;28;1910;-46
2022/05/26 08:12:17;;;;;;;;;;;27.40;39.50;;;;;;5117112;28;949;-47
2022/05/26 08:14:44;;;;;;;;;;;27.40;39.40;;;;;;5117538;28;970;-46
2022/05/26 08:17:13;;;;;;;;;;;27.40;39.50;;;;;;5117679;28;710;-46
2022/05/26 08:19:40;;;;;;;;;;;27.40;39.50;;;;;;5116554;28;909;-46
2022/05/26 08:22:06;;;;;;;;;;;27.30;39.40;;;;;;5116319;28;1008;-47
2022/05/26 08:24:33;;;;;;;;;;;27.30;39.40;;;;;;5115475;28;1016;-46
2022/05/26 08:27:01;;;;;;;;;;;27.30;39.50;;;;;;5116502;28;1520;-46
2022/05/26 08:29:28;;;;;;;;;;;27.30;39.50;;;;;;5116522;28;1971;-46
2022/05/26 08:31:55;;;;;;;;;;;27.40;39.40;;;;;;5116293;28;1004;-47
2022/05/26 08:34:21;;;;;;;;;;;27.30;39.40;;;;;;5116606;28;954;-47
2022/05/26 08:36:48;;;;;;;;;;;27.30;39.50;;;;;;5116074;28;949;-46
2022/05/26 08:39:15;;;;;;;;;;;27.30;39.60;;;;;;5114702;28;996;-46
2022/05/26 08:41:44;;;;;;;;;;;27.40;39.80;;;;;;5115364;28;896;-47
2022/05/26 08:44:15;;;;;;;;;;;27.50;39.80;;;;;;5117492;28;1035;-46
2022/05/26 08:46:44;;;;;;;;;;;27.70;39.50;;;;;;5116928;28;1016;-42
2022/05/26 08:49:13;;;;;;;;;;;27.80;38.50;;;;;;5117474;28;1218;-42
2022/05/26 08:51:44;;;;;;;;;;;27.90;38.10;;;;;;5116639;28;1952;-42
2022/05/26 08:54:15;;;;;;;;;;;27.70;38.10;;;;;;5115051;28;995;-42
2022/05/26 08:56:43;;;;;;;;;;;27.70;38.60;;;;;;5115647;28;1051;-44
2022/05/26 08:59:12;;;;;;;;;;;27.60;38.40;;;;;;5114615;28;1236;-43
2022/05/26 09:01:40;;;;;;;;;;;27.70;38.90;;;;;;5115465;28;1048;-44
2022/05/26 09:04:10;;;;;;;;;;;27.60;38.30;;;;;;5115097;28;1032;-44
2022/05/26 09:12:55;;;;;;;;;;;27.50;37.30;;;;;;5115316;28;1023;-45
2022/05/26 09:14:55;;;;;;;;;;;27.50;37.50;;;;;;5116543;28;900;-43
2022/05/26 09:17:23;;;;;;;;;;;27.30;38.00;;;;;;5116160;28;995;-46
2022/05/26 09:19:52;;;;;;;;;;;27.30;38.70;;;;;;5116112;28;1003;-44
2022/05/26 09:22:27;;;;;;;;;;;27.20;38.70;;;;;;5114431;28;913;-43
2022/05/26 09:24:54;;;;;;;;;;;27.20;39.20;;;;;;5114862;28;964;-44
2022/05/26 09:27:26;;;;;;;;;;;27.20;38.90;;;;;;5116058;28;909;-44
2022/05/26 09:29:53;;;;;;;;;;;27.20;39.20;;;;;;5115536;28;1984;-44
2022/05/26 09:32:22;;;;;;;;;;;27.20;39.20;;;;;;5115900;28;945;-43
2022/05/26 09:35:02;;;;;;;;;;;27.20;39.30;;;;;;5116582;28;1088;-46
2022/05/26 09:37:37;;;;;;;;;;;27.30;39.60;;;;;;5115453;28;1000;-44
2022/05/26 09:40:12;;;;;;;;;;;27.30;40.00;;;;;;5114529;28;980;-44
2022/05/26 09:42:41;;;;;;;;;;;27.30;39.10;;;;;;5114603;28;881;-45
2022/05/26 09:45:10;;;;;;;;;;;27.30;39.40;;;;;;5114128;28;1009;-44
2022/05/26 09:47:39;;;;;;;;;;;27.30;39.10;;;;;;5115596;28;995;-44
2022/05/26 09:50:09;;;;;;;;;;;27.30;39.30;;;;;;5115505;28;1917;-44
2022/05/26 09:52:40;;;;;;;;;;;27.30;39.30;;;;;;5114773;28;1115;-44
2022/05/26 09:55:09;;;;;;;;;;;27.30;39.30;;;;;;5114331;28;1000;-45
2022/05/26 09:57:36;;;;;;;;;;;27.40;39.60;;;;;;5114770;28;992;-45
2022/05/26 10:00:08;;;;;;;;;;;27.50;38.90;;;;;;5113957;28;1035;-45
2022/05/26 10:02:36;;;;;;;;;;;27.40;38.90;;;;;;5116796;28;880;-45
2022/05/26 10:05:09;;;;;;;;;;;27.50;39.00;;;;;;5116966;28;988;-45
2022/05/26 10:07:50;;;;;;;;;;;27.40;39.00;;;;;;5116517;28;1012;-45
2022/05/26 10:10:22;;;;;;;;;;;27.40;38.60;;;;;;5113401;28;1909;-46
2022/05/26 10:12:54;;;;;;;;;;;27.50;39.00;;;;;;5116489;28;984;-46
2022/05/26 10:15:29;;;;;;;;;;;27.50;38.50;;;;;;5116512;28;928;-46
2022/05/26 10:18:16;;;;;;;;;;;27.40;39.00;;;;;;5119941;28;992;-45
2022/05/26 10:20:46;;;;;;;;;;;27.40;39.60;;;;;;5120963;28;932;-46
2022/05/26 10:23:26;;;;;;;;;;;27.40;39.10;;;;;;5120823;28;968;-45
2022/05/26 10:25:59;;;;;;;;;;;27.40;39.00;;;;;;5120817;28;1014;-45
2022/05/26 10:28:43;;;;;;;;;;;27.40;38.70;;;;;;5119585;28;937;-45
2022/05/26 10:31:18;;;;;;;;;;;27.50;38.80;;;;;;5118914;28;1897;-45
2022/05/26 10:33:53;;;;;;;;;;;27.50;39.00;;;;;;5118670;28;947;-45
2022/05/26 10:36:22;;;;;;;;;;;27.40;38.90;;;;;;5118708;28;992;-45
2022/05/26 10:39:04;;;;;;;;;;;27.40;38.90;;;;;;5118206;28;1000;-45
2022/05/26 10:41:34;;;;;;;;;;;27.40;38.60;;;;;;5118185;28;937;-44
2022/05/26 10:44:03;;;;;;;;;;;27.50;38.90;;;;;;5118244;28;940;-45
2022/05/26 10:46:32;;;;;;;;;;;27.50;39.10;;;;;;5120367;28;1011;-34
2022/05/26 10:49:02;;;;;;;;;;;27.50;39.10;;;;;;5090664;28;833;-33
2022/05/26 10:51:31;;;;;;;;;;;27.50;38.90;;;;;;5103460;28;1913;-34
2022/05/26 10:54:01;;;;;;;;;;;27.50;38.80;;;;;;5117850;28;963;-35
2022/05/26 10:56:30;;;;;;;;;;;27.50;38.50;;;;;;5119679;28;739;-33
2022/05/26 10:59:04;;;;;;;;;;;27.50;38.60;;;;;;5120362;28;1058;-33
2022/05/26 11:01:34;;;;;;;;;;;27.50;38.00;;;;;;5119196;28;1008;-36
2022/05/26 11:04:05;;;;;;;;;;;27.50;38.40;;;;;;5120746;28;936;-33
2022/05/26 11:06:34;;;;;;;;;;;27.50;38.60;;;;;;5119241;28;999;-34
2022/05/26 11:09:07;;;;;;;;;;;27.50;38.40;;;;;;5119338;28;981;-33
2022/05/26 11:11:36;;;;;;;;;;;27.50;38.40;;;;;;5120163;28;1897;-33
2022/05/26 11:14:05;;;;;;;;;;;27.50;38.20;;;;;;5120092;28;940;-33
2022/05/26 11:19:25;;;;;;;;;;;27.60;38.40;;;;;;5120509;28;879;-46
2022/05/26 11:21:52;;;;;;;;;;;27.60;38.40;;;;;;5118419;28;961;-45
2022/05/26 11:24:20;;;;;;;;;;;27.60;38.50;;;;;;5118214;28;999;-44
2022/05/26 11:26:49;;;;;;;;;;;27.60;38.60;;;;;;5117584;28;873;-46
2022/05/26 11:29:21;;;;;;;;;;;27.60;38.70;;;;;;5118602;28;980;-44
2022/05/26 11:37:37;;;;;;;;;;;27.60;38.90;;;;;;5053588;28;1086;-44
2022/05/26 11:40:06;;;;;;;;;;;27.60;39.10;;;;;;5104384;28;1046;-45
2022/05/26 11:42:34;;;;;;;;;;;27.50;39.10;;;;;;5117941;28;957;-46
2022/05/26 11:45:22;;;;;;;;;;;27.60;39.20;;;;;;5118257;28;981;-44
2022/05/26 11:47:53;;;;;;;;;;;27.50;39.10;;;;;;5118477;28;953;-44
2022/05/26 11:50:28;;;;;;;;;;;27.60;39.10;;;;;;5118155;28;1965;-45
2022/05/26 11:53:06;;;;;;;;;;;27.60;39.00;;;;;;5117829;28;996;-45
2022/05/26 11:55:33;;;;;;;;;;;27.60;39.00;;;;;;5116521;28;1022;-45
2022/05/26 11:58:16;;;;;;;;;;;27.60;40.10;;;;;;5115588;28;1023;-45
2022/05/26 12:00:46;;;;;;;;;;;27.60;39.10;;;;;;5117415;28;1098;-45
2022/05/26 12:03:29;;;;;;;;;;;27.60;39.00;;;;;;5116956;28;1020;-48
2022/05/26 12:05:57;;;;;;;;;;;27.50;39.00;;;;;;5116951;28;928;-44
2022/05/26 12:08:36;;;;;;;;;;;27.50;39.10;;;;;;5115832;28;1016;-43
2022/05/26 12:11:06;;;;;;;;;;;27.50;39.10;;;;;;5115912;28;1893;-43
2022/05/26 12:13:34;;;;;;;;;;;27.60;39.10;;;;;;5115507;28;853;-42
2022/05/26 12:16:25;;;;;;;;;;;27.60;39.10;;;;;;5115565;28;1011;-43
2022/05/26 12:18:55;;;;;;;;;;;27.60;39.00;;;;;;5096324;28;1461;-43
2022/05/26 12:21:36;;;;;;;;;;;27.60;39.00;;;;;;5115090;28;1145;-43
2022/05/26 12:24:17;;;;;;;;;;;27.60;40.20;;;;;;5116770;28;988;-43
2022/05/26 12:26:49;;;;;;;;;;;27.60;39.00;;;;;;5116617;28;980;-43
2022/05/26 12:29:34;;;;;;;;;;;27.60;39.00;;;;;;5117439;28;1463;-43
2022/05/26 12:32:11;;;;;;;;;;;27.70;38.80;;;;;;5117069;28;1917;-43
2022/05/26 12:34:47;;;;;;;;;;;27.70;38.90;;;;;;5117793;28;971;-43
2022/05/26 12:37:20;;;;;;;;;;;27.70;38.90;;;;;;5117667;28;912;-43
2022/05/26 12:40:05;;;;;;;;;;;27.70;38.90;;;;;;5116912;28;968;-43
2022/05/26 12:42:48;;;;;;;;;;;27.70;38.80;;;;;;5118183;28;936;-43
2022/05/26 12:45:25;;;;;;;;;;;27.70;38.80;;;;;;5110356;28;1782;-43
2022/05/26 12:48:05;;;;;;;;;;;27.70;38.80;;;;;;5097738;28;1056;-43
2022/05/26 12:50:38;;;;;;;;;;;27.70;39.00;;;;;;5096323;28;1009;-43
2022/05/26 12:53:08;;;;;;;;;;;27.70;38.90;;;;;;5095497;28;996;-43
2022/05/26 12:55:39;;;;;;;;;;;27.70;38.80;;;;;;5096009;28;1019;-46
2022/05/26 12:58:07;;;;;;;;;;;27.70;38.90;;;;;;5093635;28;1009;-46
2022/05/26 13:00:35;;;;;;;;;;;27.70;39.10;;;;;;5094706;28;1035;-43
2022/05/26 13:03:04;;;;;;;;;;;27.70;39.10;;;;;;5095691;28;981;-43
2022/05/26 13:05:34;;;;;;;;;;;27.60;39.10;;;;;;5095714;28;945;-43
2022/05/26 13:08:01;;;;;;;;;;;27.60;39.20;;;;;;5095728;28;1029;-42
2022/05/26 13:10:29;;;;;;;;;;;27.60;39.20;;;;;;5095393;28;980;-43
2022/05/26 13:12:56;;;;;;;;;;;27.60;39.20;;;;;;5094620;28;1913;-43
2022/05/26 13:15:24;;;;;;;;;;;27.70;39.30;;;;;;5093900;28;968;-43
2022/05/26 13:17:52;;;;;;;;;;;27.70;39.30;;;;;;5093949;28;1108;-43
2022/05/26 13:20:24;;;;;;;;;;;27.70;39.20;;;;;;5094283;28;940;-43
2022/05/26 13:22:52;;;;;;;;;;;27.70;39.30;;;;;;5095490;28;969;-46
2022/05/26 13:25:23;;;;;;;;;;;27.70;39.20;;;;;;5094568;28;957;-44
2022/05/26 13:27:52;;;;;;;;;;;27.80;38.30;;;;;;5093934;28;878;-44
2022/05/26 13:33:11;;;;;;;;;;;27.80;34.60;;;;;;5093859;28;1974;-47
2022/05/26 13:35:46;;;;;;;;;;;27.70;34.10;;;;;;5095161;28;981;-44
2022/05/26 13:38:21;;;;;;;;;;;27.70;33.60;;;;;;5093916;28;957;-46
2022/05/26 13:40:48;;;;;;;;;;;27.70;33.70;;;;;;5095269;28;1035;-48
2022/05/26 13:43:16;;;;;;;;;;;27.60;34.10;;;;;;5092918;28;930;-46
2022/05/26 13:45:43;;;;;;;;;;;27.60;35.20;;;;;;5093806;28;992;-44
2022/05/26 13:48:29;;;;;;;;;;;27.60;35.50;;;;;;5093229;28;897;-46
2022/05/26 13:50:58;;;;;;;;;;;27.70;36.40;;;;;;5094157;28;1901;-48
2022/05/26 13:53:26;;;;;;;;;;;27.60;36.40;;;;;;5097212;28;869;-48
2022/05/26 13:55:56;;;;;;;;;;;27.60;36.60;;;;;;5098209;28;1148;-49
2022/05/26 13:58:24;;;;;;;;;;;27.60;36.80;;;;;;5097978;28;972;-50
2022/05/26 14:00:58;;;;;;;;;;;27.60;36.90;;;;;;5097980;28;1036;-49
2022/05/26 14:03:26;;;;;;;;;;;27.60;37.00;;;;;;5099539;28;1064;-41
2022/05/26 14:05:58;;;;;;;;;;;27.70;37.00;;;;;;5098280;28;2241;-47
2022/05/26 14:08:27;;;;;;;;;;;27.70;36.90;;;;;;5098971;28;953;-46
2022/05/26 14:10:55;;;;;;;;;;;27.70;36.90;;;;;;5098176;28;939;-48
2022/05/26 14:13:30;;;;;;;;;;;27.70;36.90;;;;;;5097567;28;1898;-48
2022/05/26 14:15:58;;;;;;;;;;;27.80;37.00;;;;;;5097515;28;991;-48
2022/05/26 14:18:28;;;;;;;;;;;27.80;36.90;;;;;;5098148;28;1796;-50
2022/05/26 14:20:56;;;;;;;;;;;27.80;36.80;;;;;;5097730;28;1014;-48
2022/05/26 14:23:23;;;;;;;;;;;27.80;36.80;;;;;;5096738;28;952;-49
2022/05/26 14:25:58;;;;;;;;;;;27.80;36.60;;;;;;5097651;28;1024;-48
2022/05/26 14:28:33;;;;;;;;;;;27.80;36.90;;;;;;5096130;28;1895;-49
2022/05/26 14:31:02;;;;;;;;;;;27.80;36.90;;;;;;5098655;28;924;-49
2022/05/26 14:33:31;;;;;;;;;;;27.80;36.70;;;;;;5096187;28;1961;-48
2022/05/26 14:35:58;;;;;;;;;;;27.80;36.70;;;;;;5096070;28;943;-49
2022/05/26 14:38:25;;;;;;;;;;;27.80;36.60;;;;;;5097230;28;952;-48
2022/05/26 14:40:52;;;;;;;;;;;27.80;36.70;;;;;;5097138;28;1061;-49
2022/05/26 14:43:22;;;;;;;;;;;27.80;36.90;;;;;;5098533;28;978;-49
2022/05/26 14:45:49;;;;;;;;;;;27.80;36.70;;;;;;5096705;28;933;-49
2022/05/26 14:48:16;;;;;;;;;;;27.90;36.80;;;;;;5097376;28;1020;-46
2022/05/26 14:50:44;;;;;;;;;;;27.90;36.90;;;;;;5097681;28;1003;-46
2022/05/26 14:53:11;;;;;;;;;;;27.90;36.90;;;;;;5098461;28;1972;-39
2022/05/26 14:55:38;;;;;;;;;;;27.90;37.00;;;;;;5099225;28;1042;-38
2022/05/26 14:58:07;;;;;;;;;;;28.00;36.90;;;;;;5097947;28;1012;-37
2022/05/26 15:00:37;;;;;;;;;;;28.00;36.40;;;;;;5097923;28;1485;-36
2022/05/26 15:03:06;;;;;;;;;;;28.10;34.20;;;;;;5096414;28;1772;-38
2022/05/26 15:05:34;;;;;;;;;;;28.10;34.80;;;;;;5097553;28;1947;-37
2022/05/26 15:08:01;;;;;;;;;;;28.10;34.30;;;;;;5096257;28;943;-38
2022/05/26 15:10:28;;;;;;;;;;;28.00;34.80;;;;;;5097483;28;1028;-38
2022/05/26 15:12:55;;;;;;;;;;;27.90;35.30;;;;;;5097964;28;1906;-38
2022/05/26 15:15:22;;;;;;;;;;;28.00;36.80;;;;;;5097481;28;1004;-39
2022/05/26 15:17:50;;;;;;;;;;;28.00;35.80;;;;;;5097592;28;1015;-38
2022/05/26 15:20:18;;;;;;;;;;;28.00;35.60;;;;;;5097454;28;1914;-39
2022/05/26 15:22:45;;;;;;;;;;;28.00;35.70;;;;;;5097594;28;1390;-38
2022/05/26 15:25:14;;;;;;;;;;;27.90;35.80;;;;;;5097224;28;995;-38
2022/05/26 15:27:41;;;;;;;;;;;27.90;35.70;;;;;;5092437;28;936;-40
2022/05/26 15:30:11;;;;;;;;;;;27.90;35.80;;;;;;5090814;28;1395;-39